createdAt,value
2017-02-10T00:00:20.024Z,-4
2017-02-10T00:01:22.470Z,-4
2017-02-10T00:03:27.310Z,-4
2017-02-10T00:04:29.749Z,-4.1
2017-02-10T00:05:32.193Z,-4
2017-02-10T00:06:34.135Z,-4
2017-02-10T00:07:36.578Z,-4
2017-02-10T00:08:39.028Z,-4
2017-02-10T00:09:41.472Z,-4
2017-02-10T00:10:43.917Z,-4.1
2017-02-10T00:11:46.188Z,-4.1
2017-02-10T00:12:48.963Z,-4.1
2017-02-10T00:13:51.413Z,-4.1
2017-02-10T00:14:53.859Z,-4.1
2017-02-10T00:16:58.712Z,-4.1
2017-02-10T00:18:01.155Z,-4.1
2017-02-10T00:19:03.597Z,-4.1
2017-02-10T00:20:06.037Z,-4.1
2017-02-10T00:21:08.147Z,-4.1
2017-02-10T00:22:10.588Z,-4.1
2017-02-10T00:23:13.027Z,-4.1
2017-02-10T00:24:15.470Z,-4.1
2017-02-10T00:25:17.920Z,-4.1
2017-02-10T00:26:20.363Z,-4.1
2017-02-10T00:27:22.803Z,-4.1
2017-02-10T00:28:25.241Z,-4.1
2017-02-10T00:29:27.680Z,-4.1
2017-02-10T00:30:30.656Z,-4
2017-02-10T00:32:34.995Z,-4.1
2017-02-10T00:33:37.314Z,-4.1
2017-02-10T00:34:39.756Z,-4.1
2017-02-10T00:35:42.200Z,-4.1
2017-02-10T00:36:44.649Z,-4.1
2017-02-10T00:37:47.091Z,-4.1
2017-02-10T00:38:49.533Z,-4.1
2017-02-10T00:39:51.972Z,-4.1
2017-02-10T00:40:54.419Z,-4.1
2017-02-10T00:41:56.860Z,-4.1
2017-02-10T00:42:59.299Z,-4.1
2017-02-10T00:44:01.741Z,-4.1
2017-02-10T00:45:04.182Z,-4.1
2017-02-10T00:46:07.148Z,-4.1
2017-02-10T00:47:09.085Z,-4.1
2017-02-10T00:48:11.529Z,-4.1
2017-02-10T00:49:13.969Z,-4.1
2017-02-10T00:50:16.415Z,-4.1
2017-02-10T00:51:18.860Z,-4.1
2017-02-10T00:52:21.304Z,-4.1
2017-02-10T00:53:23.744Z,-4.1
2017-02-10T00:54:26.187Z,-4.1
2017-02-10T00:55:28.635Z,-4.1
2017-02-10T00:56:31.606Z,-4.1
2017-02-10T00:57:33.541Z,-4.1
2017-02-10T00:58:35.984Z,-4.1
2017-02-10T00:59:38.424Z,-4.2
2017-02-10T01:00:40.863Z,-4.1
2017-02-10T01:01:43.302Z,-4.1
2017-02-10T01:02:45.747Z,-4.1
2017-02-10T01:03:47.701Z,-4.2
2017-02-10T01:04:50.140Z,-4.1
2017-02-10T01:05:52.585Z,-4.2
2017-02-10T01:06:55.031Z,-4.3
2017-02-10T01:07:57.470Z,-4.2
2017-02-10T01:09:00.276Z,-4.2
2017-02-10T01:10:03.244Z,-4.2
2017-02-10T01:11:04.515Z,-4.2
2017-02-10T01:12:07.292Z,-4.2
2017-02-10T01:13:10.262Z,-4.2
2017-02-10T01:14:12.204Z,-4.2
2017-02-10T01:15:14.649Z,-4.2
2017-02-10T01:16:16.765Z,-4.2
2017-02-10T01:17:19.716Z,-4.2
2017-02-10T01:18:22.158Z,-4.3
2017-02-10T01:19:24.100Z,-4.2
2017-02-10T01:20:26.548Z,-4.2
2017-02-10T01:21:28.992Z,-4.2
2017-02-10T01:22:31.437Z,-4.3
2017-02-10T01:23:33.876Z,-4.3
2017-02-10T01:24:36.317Z,-4.3
2017-02-10T01:25:38.759Z,-4.3
2017-02-10T01:26:41.198Z,-4.3
2017-02-10T01:27:43.637Z,-4.3
2017-02-10T01:28:46.074Z,-4.3
2017-02-10T01:29:48.516Z,-4.3
2017-02-10T01:30:50.957Z,-4.3
2017-02-10T01:31:53.924Z,-4.3
2017-02-10T01:32:55.696Z,-4.3
2017-02-10T01:33:58.142Z,-4.3
2017-02-10T01:37:05.396Z,-4.3
2017-02-10T01:38:07.500Z,-4.4
2017-02-10T01:39:10.470Z,-4.4
2017-02-10T01:40:12.741Z,-4.4
2017-02-10T01:41:15.523Z,-4.3
2017-02-10T01:42:17.486Z,-4.3
2017-02-10T01:43:20.460Z,-4.3
2017-02-10T01:44:22.395Z,-4.3
2017-02-10T01:45:24.839Z,-4.3
2017-02-10T01:47:30.207Z,-4.4
2017-02-10T01:48:31.974Z,-4.4
2017-02-10T01:49:34.417Z,-4.4
2017-02-10T01:50:36.856Z,-4.4
2017-02-10T01:51:39.299Z,-4.4
2017-02-10T01:52:41.744Z,-4.4
2017-02-10T01:53:44.185Z,-4.4
2017-02-10T01:54:46.631Z,-4.4
2017-02-10T01:55:49.072Z,-4.4
2017-02-10T01:56:51.514Z,-4.5
2017-02-10T01:57:53.960Z,-4.5
2017-02-10T01:58:56.403Z,-4.5
2017-02-10T01:59:58.850Z,-4.4
2017-02-10T02:01:01.293Z,-4.5
2017-02-10T02:02:03.579Z,-4.4
2017-02-10T02:03:06.023Z,-4.5
2017-02-10T02:04:08.295Z,-4.4
2017-02-10T02:05:11.242Z,-4.4
2017-02-10T02:06:13.413Z,-4.5
2017-02-10T02:07:15.857Z,-4.4
2017-02-10T02:08:18.299Z,-4.4
2017-02-10T02:09:20.743Z,-4.4
2017-02-10T02:10:23.187Z,-4.5
2017-02-10T02:11:26.159Z,-4.5
2017-02-10T02:12:28.092Z,-4.5
2017-02-10T02:13:31.059Z,-4.5
2017-02-10T02:14:32.998Z,-4.5
2017-02-10T02:15:35.443Z,-4.6
2017-02-10T02:16:37.882Z,-4.5
2017-02-10T02:17:39.833Z,-4.6
2017-02-10T02:18:42.278Z,-4.5
2017-02-10T02:19:44.721Z,-4.5
2017-02-10T02:20:47.165Z,-4.5
2017-02-10T02:21:49.605Z,-4.5
2017-02-10T02:22:52.045Z,-4.6
2017-02-10T02:23:54.483Z,-4.6
2017-02-10T02:24:57.454Z,-4.5
2017-02-10T02:25:59.394Z,-4.5
2017-02-10T02:27:01.839Z,-4.5
2017-02-10T02:28:04.280Z,-4.5
2017-02-10T02:29:07.258Z,-4.5
2017-02-10T02:30:09.198Z,-4.5
2017-02-10T02:31:11.305Z,-4.5
2017-02-10T02:32:13.582Z,-4.5
2017-02-10T02:33:16.363Z,-4.6
2017-02-10T02:34:18.802Z,-4.5
2017-02-10T02:35:21.250Z,-4.6
2017-02-10T02:36:23.687Z,-4.5
2017-02-10T02:37:26.129Z,-4.6
2017-02-10T02:38:28.570Z,-4.5
2017-02-10T02:39:31.018Z,-4.5
2017-02-10T02:41:36.694Z,-4.5
2017-02-10T02:42:38.207Z,-4.5
2017-02-10T02:43:41.195Z,-4.6
2017-02-10T02:44:43.140Z,-4.6
2017-02-10T02:45:45.581Z,-4.6
2017-02-10T02:46:48.028Z,-4.5
2017-02-10T02:47:50.471Z,-4.6
2017-02-10T02:48:52.916Z,-4.6
2017-02-10T02:49:55.880Z,-4.6
2017-02-10T02:50:57.315Z,-4.6
2017-02-10T02:51:59.758Z,-4.6
2017-02-10T02:53:02.202Z,-4.6
2017-02-10T02:54:04.643Z,-4.6
2017-02-10T02:55:07.092Z,-4.6
2017-02-10T02:56:09.195Z,-4.6
2017-02-10T02:57:11.969Z,-4.6
2017-02-10T02:58:13.910Z,-4.6
2017-02-10T02:59:16.851Z,-4.6
2017-02-10T03:00:19.295Z,-4.6
2017-02-10T03:01:21.751Z,-4.6
2017-02-10T03:02:24.719Z,-4.6
2017-02-10T03:03:26.657Z,-4.6
2017-02-10T03:04:29.102Z,-4.6
2017-02-10T03:05:31.541Z,-4.6
2017-02-10T03:06:33.992Z,-4.6
2017-02-10T03:07:36.437Z,-4.6
2017-02-10T03:08:38.883Z,-4.6
2017-02-10T03:10:43.729Z,-4.7
2017-02-10T03:11:45.672Z,-4.7
2017-02-10T03:12:48.119Z,-4.7
2017-02-10T03:13:50.597Z,-4.7
2017-02-10T03:14:53.037Z,-4.6
2017-02-10T03:15:55.476Z,-4.6
2017-02-10T03:16:57.910Z,-4.7
2017-02-10T03:18:00.347Z,-4.7
2017-02-10T03:19:02.786Z,-4.7
2017-02-10T03:20:05.225Z,-4.6
2017-02-10T03:21:07.498Z,-4.6
2017-02-10T03:22:09.939Z,-4.6
2017-02-10T03:24:14.781Z,-4.6
2017-02-10T03:26:19.621Z,-4.6
2017-02-10T03:27:22.062Z,-4.6
2017-02-10T03:28:24.499Z,-4.7
2017-02-10T03:29:26.767Z,-4.7
2017-02-10T03:30:29.209Z,-4.7
2017-02-10T03:31:31.654Z,-4.7
2017-02-10T03:32:34.095Z,-4.7
2017-02-10T03:33:36.530Z,-4.7
2017-02-10T03:36:43.780Z,-4.6
2017-02-10T03:37:46.217Z,-4.7
2017-02-10T03:38:48.655Z,-4.7
2017-02-10T03:39:51.095Z,-4.7
2017-02-10T03:40:53.535Z,-4.7
2017-02-10T03:41:55.977Z,-4.7
2017-02-10T03:42:58.415Z,-4.7
2017-02-10T03:44:00.855Z,-4.7
2017-02-10T03:45:03.295Z,-4.7
2017-02-10T03:46:05.732Z,-4.7
2017-02-10T03:48:10.576Z,-4.6
2017-02-10T03:49:13.020Z,-4.7
2017-02-10T03:50:15.457Z,-4.7
2017-02-10T03:51:18.425Z,-4.8
2017-02-10T03:52:20.910Z,-4.7
2017-02-10T03:53:23.373Z,-4.8
2017-02-10T03:54:24.807Z,-4.8
2017-02-10T03:55:27.246Z,-4.8
2017-02-10T03:56:29.686Z,-4.8
2017-02-10T03:57:32.123Z,-4.8
2017-02-10T03:58:34.561Z,-4.8
2017-02-10T03:59:36.996Z,-4.8
2017-02-10T04:00:39.431Z,-4.8
2017-02-10T04:01:41.869Z,-4.8
2017-02-10T04:02:44.308Z,-4.8
2017-02-10T04:03:46.748Z,-4.8
2017-02-10T04:04:49.186Z,-4.8
2017-02-10T04:05:51.624Z,-4.8
2017-02-10T04:06:54.064Z,-4.8
2017-02-10T04:07:56.501Z,-4.8
2017-02-10T04:08:58.958Z,-4.8
2017-02-10T04:10:01.230Z,-4.8
2017-02-10T04:11:03.675Z,-4.8
2017-02-10T04:12:06.116Z,-4.8
2017-02-10T04:13:08.555Z,-4.8
2017-02-10T04:14:10.994Z,-4.8
2017-02-10T04:15:13.267Z,-4.8
2017-02-10T04:16:15.708Z,-4.8
2017-02-10T04:17:18.145Z,-4.8
2017-02-10T04:18:20.582Z,-4.8
2017-02-10T04:19:23.022Z,-4.8
2017-02-10T04:20:25.460Z,-4.8
2017-02-10T04:21:27.923Z,-4.8
2017-02-10T04:22:30.895Z,-4.8
2017-02-10T04:23:32.830Z,-4.8
2017-02-10T04:24:35.268Z,-4.8
2017-02-10T04:25:37.710Z,-4.8
2017-02-10T04:26:40.178Z,-4.8
2017-02-10T04:27:42.627Z,-4.8
2017-02-10T04:28:44.392Z,-4.8
2017-02-10T04:29:47.332Z,-4.8
2017-02-10T04:30:49.773Z,-4.8
2017-02-10T04:31:52.217Z,-4.8
2017-02-10T04:32:54.654Z,-4.8
2017-02-10T04:33:57.094Z,-4.8
2017-02-10T04:34:59.538Z,-4.8
2017-02-10T04:36:01.978Z,-4.8
2017-02-10T04:37:03.748Z,-4.8
2017-02-10T04:38:06.689Z,-4.8
2017-02-10T04:39:09.148Z,-4.8
2017-02-10T04:40:11.583Z,-4.8
2017-02-10T04:42:16.258Z,-4.8
2017-02-10T04:44:20.834Z,-4.8
2017-02-10T04:45:23.272Z,-4.8
2017-02-10T04:46:25.707Z,-4.8
2017-02-10T04:47:28.144Z,-4.8
2017-02-10T04:48:30.580Z,-4.8
2017-02-10T04:49:33.045Z,-4.8
2017-02-10T04:50:35.482Z,-4.8
2017-02-10T04:51:37.923Z,-4.8
2017-02-10T04:52:40.886Z,-4.8
2017-02-10T04:53:42.822Z,-4.8
2017-02-10T04:54:45.262Z,-4.8
2017-02-10T04:55:47.700Z,-4.8
2017-02-10T04:58:54.967Z,-4.8
2017-02-10T04:59:57.411Z,-4.8
2017-02-10T05:01:00.374Z,-4.8
2017-02-10T05:02:02.313Z,-4.9
2017-02-10T05:03:04.759Z,-4.9
2017-02-10T05:05:09.599Z,-4.9
2017-02-10T05:06:12.038Z,-4.9
2017-02-10T05:07:14.477Z,-4.9
2017-02-10T05:08:16.921Z,-4.8
2017-02-10T05:09:18.859Z,-4.8
2017-02-10T05:10:21.306Z,-4.8
2017-02-10T05:12:26.184Z,-4.9
2017-02-10T05:13:28.618Z,-4.9
2017-02-10T05:14:31.081Z,-4.9
2017-02-10T05:15:33.519Z,-4.9
2017-02-10T05:16:35.957Z,-4.9
2017-02-10T05:17:38.394Z,-4.9
2017-02-10T05:18:40.835Z,-4.9
2017-02-10T05:19:43.279Z,-4.9
2017-02-10T05:20:45.718Z,-5
2017-02-10T05:21:48.155Z,-5
2017-02-10T05:22:50.594Z,-4.9
2017-02-10T05:23:53.034Z,-5
2017-02-10T05:24:55.307Z,-5
2017-02-10T05:27:00.149Z,-5
2017-02-10T05:28:02.590Z,-5
2017-02-10T05:29:04.858Z,-5
2017-02-10T05:30:07.132Z,-5
2017-02-10T05:31:10.074Z,-5
2017-02-10T05:32:11.838Z,-5
2017-02-10T05:34:17.187Z,-5
2017-02-10T05:35:19.623Z,-5
2017-02-10T05:36:22.065Z,-5
2017-02-10T05:37:24.503Z,-5
2017-02-10T05:38:26.944Z,-5.1
2017-02-10T05:39:29.388Z,-5.1
2017-02-10T05:40:31.325Z,-5
2017-02-10T05:41:33.762Z,-5
2017-02-10T05:42:36.728Z,-5
2017-02-10T05:43:38.666Z,-5
2017-02-10T05:44:41.106Z,-5
2017-02-10T05:45:43.542Z,-5
2017-02-10T05:46:45.983Z,-5
2017-02-10T05:47:48.421Z,-5
2017-02-10T05:48:50.860Z,-5
2017-02-10T05:49:53.297Z,-5
2017-02-10T05:50:55.744Z,-5
2017-02-10T05:51:58.188Z,-5
2017-02-10T05:53:00.634Z,-5.1
2017-02-10T05:55:06.005Z,-5.1
2017-02-10T05:56:07.939Z,-5.1
2017-02-10T05:57:10.207Z,-5.1
2017-02-10T05:58:12.479Z,-5.1
2017-02-10T05:59:14.922Z,-5.1
2017-02-10T06:00:17.362Z,-5.1
2017-02-10T06:01:19.635Z,-5.1
2017-02-10T06:02:22.086Z,-5
2017-02-10T06:03:24.527Z,-5
2017-02-10T06:04:26.975Z,-5
2017-02-10T06:05:29.414Z,-5
2017-02-10T06:07:34.258Z,-5
2017-02-10T06:08:37.222Z,-5
2017-02-10T06:09:39.157Z,-5
2017-02-10T06:10:41.596Z,-5
2017-02-10T06:11:44.038Z,-5
2017-02-10T06:12:46.491Z,-5.1
2017-02-10T06:13:48.930Z,-5.1
2017-02-10T06:14:51.379Z,-5.1
2017-02-10T06:15:53.819Z,-5.1
2017-02-10T06:16:56.257Z,-5.1
2017-02-10T06:17:58.698Z,-5.1
2017-02-10T06:19:01.137Z,-5.1
2017-02-10T06:20:03.409Z,-5.1
2017-02-10T06:21:06.378Z,-5.1
2017-02-10T06:22:07.975Z,-5.1
2017-02-10T06:23:10.415Z,-5.1
2017-02-10T06:24:12.684Z,-5.1
2017-02-10T06:25:16.155Z,-5.1
2017-02-10T06:26:17.424Z,-5.1
2017-02-10T06:27:20.365Z,-5.1
2017-02-10T06:28:22.801Z,-5.2
2017-02-10T06:29:25.241Z,-5.2
2017-02-10T06:30:27.680Z,-5.2
2017-02-10T06:31:30.119Z,-5.1
2017-02-10T06:32:32.072Z,-5.1
2017-02-10T06:33:34.519Z,-5.1
2017-02-10T06:34:36.957Z,-5.1
2017-02-10T06:35:39.398Z,-5.1
2017-02-10T06:36:41.836Z,-5.2
2017-02-10T06:38:46.686Z,-5.2
2017-02-10T06:39:49.128Z,-5.2
2017-02-10T06:40:51.566Z,-5.3
2017-02-10T06:41:54.002Z,-5.3
2017-02-10T06:42:56.437Z,-5.2
2017-02-10T06:43:58.886Z,-5.2
2017-02-10T06:45:01.333Z,-5.1
2017-02-10T06:46:03.775Z,-5.1
2017-02-10T06:47:06.214Z,-5.1
2017-02-10T06:48:08.487Z,-5.1
2017-02-10T06:49:10.821Z,-5.1
2017-02-10T06:51:15.667Z,-5.1
2017-02-10T06:52:18.637Z,-5.1
2017-02-10T06:53:20.574Z,-5.1
2017-02-10T06:54:23.542Z,-5.1
2017-02-10T06:55:25.505Z,-5.1
2017-02-10T06:56:27.946Z,-5.1
2017-02-10T06:57:30.384Z,-5.1
2017-02-10T06:58:32.821Z,-5.1
2017-02-10T06:59:35.269Z,-5.1
2017-02-10T07:00:38.234Z,-5.1
2017-02-10T07:01:39.663Z,-5.1
2017-02-10T07:02:42.105Z,-5.1
2017-02-10T07:03:44.565Z,-5.1
2017-02-10T07:04:47.003Z,-5.1
2017-02-10T07:05:49.445Z,-5.1
2017-02-10T07:06:52.411Z,-5.1
2017-02-10T07:07:54.361Z,-5.1
2017-02-10T07:08:56.805Z,-5.1
2017-02-10T07:09:59.242Z,-5.1
2017-02-10T07:11:01.677Z,-5.1
2017-02-10T07:12:03.950Z,-5.1
2017-02-10T07:13:06.390Z,-5.1
2017-02-10T07:14:08.833Z,-5.1
2017-02-10T07:15:11.272Z,-5.1
2017-02-10T07:16:13.545Z,-5.1
2017-02-10T07:17:16.330Z,-5.1
2017-02-10T07:18:18.769Z,-5.1
2017-02-10T07:19:21.239Z,-5.1
2017-02-10T07:20:23.180Z,-5.1
2017-02-10T07:21:25.621Z,-5
2017-02-10T07:22:28.059Z,-5
2017-02-10T07:23:30.502Z,-5
2017-02-10T07:24:33.367Z,-5
2017-02-10T07:25:35.839Z,-5
2017-02-10T07:26:37.775Z,-5
2017-02-10T07:27:40.213Z,-5
2017-02-10T07:28:42.657Z,-5
2017-02-10T07:29:45.100Z,-5
2017-02-10T07:30:47.542Z,-5
2017-02-10T07:31:49.981Z,-5
2017-02-10T07:32:52.422Z,-5
2017-02-10T07:33:54.866Z,-5
2017-02-10T07:34:57.294Z,-5
2017-02-10T07:35:59.732Z,-5
2017-02-10T07:37:02.173Z,-5
2017-02-10T07:38:04.611Z,-5
2017-02-10T07:39:07.054Z,-5
2017-02-10T07:40:09.491Z,-5
2017-02-10T07:41:11.930Z,-5
2017-02-10T07:43:16.776Z,-4.9
2017-02-10T07:44:19.214Z,-5
2017-02-10T07:45:21.397Z,-4.9
2017-02-10T07:46:23.668Z,-4.9
2017-02-10T07:47:26.108Z,-4.9
2017-02-10T07:48:28.549Z,-4.9
2017-02-10T07:50:33.394Z,-4.8
2017-02-10T07:51:35.835Z,-4.9
2017-02-10T07:52:38.111Z,-4.8
2017-02-10T07:53:40.592Z,-4.8
2017-02-10T07:54:42.864Z,-4.8
2017-02-10T07:55:45.804Z,-4.8
2017-02-10T07:56:48.242Z,-4.8
2017-02-10T07:57:50.684Z,-4.8
2017-02-10T07:58:53.122Z,-4.8
2017-02-10T07:59:55.062Z,-4.8
2017-02-10T08:00:57.507Z,-4.8
2017-02-10T08:01:59.950Z,-4.8
2017-02-10T08:03:02.391Z,-4.8
2017-02-10T08:04:04.832Z,-4.8
2017-02-10T08:05:07.275Z,-4.8
2017-02-10T08:06:09.714Z,-4.8
2017-02-10T08:07:12.049Z,-4.8
2017-02-10T08:08:14.825Z,-4.8
2017-02-10T08:09:17.265Z,-4.8
2017-02-10T08:11:22.104Z,-4.7
2017-02-10T08:12:24.549Z,-4.7
2017-02-10T08:13:26.987Z,-4.7
2017-02-10T08:14:29.425Z,-4.7
2017-02-10T08:15:31.864Z,-4.7
2017-02-10T08:16:34.303Z,-4.7
2017-02-10T08:17:36.238Z,-4.6
2017-02-10T08:18:38.679Z,-4.6
2017-02-10T08:19:41.124Z,-4.6
2017-02-10T08:21:45.974Z,-4.6
2017-02-10T08:22:48.415Z,-4.6
2017-02-10T08:23:50.866Z,-4.6
2017-02-10T08:24:53.303Z,-4.6
2017-02-10T08:25:55.576Z,-4.6
2017-02-10T08:26:58.522Z,-4.6
2017-02-10T08:28:00.960Z,-4.6
2017-02-10T08:29:03.401Z,-4.6
2017-02-10T08:30:05.342Z,-4.6
2017-02-10T08:31:08.137Z,-4.6
2017-02-10T08:32:10.412Z,-4.5
2017-02-10T08:33:13.375Z,-4.5
2017-02-10T08:34:15.142Z,-4.5
2017-02-10T08:35:17.586Z,-4.5
2017-02-10T08:36:20.023Z,-4.5
2017-02-10T08:37:22.468Z,-4.5
2017-02-10T08:38:25.435Z,-4.5
2017-02-10T08:39:27.368Z,-4.4
2017-02-10T08:40:29.804Z,-4.4
2017-02-10T08:41:32.242Z,-4.3
2017-02-10T08:42:34.678Z,-4.3
2017-02-10T08:43:37.114Z,-4.3
2017-02-10T08:44:39.555Z,-4.3
2017-02-10T08:45:41.996Z,-4.3
2017-02-10T08:47:46.839Z,-4.3
2017-02-10T08:48:49.281Z,-4.3
2017-02-10T08:49:51.723Z,-4.2
2017-02-10T08:51:56.570Z,-4.2
2017-02-10T08:52:59.014Z,-4.2
2017-02-10T08:54:01.452Z,-4.2
2017-02-10T08:55:03.896Z,-4.2
2017-02-10T08:56:06.336Z,-4.2
2017-02-10T08:57:08.780Z,-4.1
2017-02-10T08:58:11.219Z,-4.1
2017-02-10T08:59:13.514Z,-4.1
2017-02-10T09:00:16.858Z,-4.1
2017-02-10T09:01:18.797Z,-4.1
2017-02-10T09:02:21.067Z,-4.1
2017-02-10T09:03:23.507Z,-4.1
2017-02-10T09:04:25.951Z,-4.1
2017-02-10T09:05:28.391Z,-4.1
2017-02-10T09:06:30.829Z,-4.1
2017-02-10T09:07:33.271Z,-4.2
2017-02-10T09:08:35.713Z,-4.1
2017-02-10T09:09:38.155Z,-4.1
2017-02-10T09:10:40.594Z,-4.2
2017-02-10T09:11:42.682Z,-4.1
2017-02-10T09:12:45.119Z,-4.1
2017-02-10T09:13:47.552Z,-4.1
2017-02-10T09:14:49.996Z,-4.1
2017-02-10T09:15:52.437Z,-4.2
2017-02-10T09:16:54.880Z,-4.2
2017-02-10T09:19:00.260Z,-4.2
2017-02-10T09:20:02.215Z,-4.1
2017-02-10T09:21:04.656Z,-4.1
2017-02-10T09:22:07.096Z,-4.1
2017-02-10T09:23:09.874Z,-4.1
2017-02-10T09:24:12.145Z,-4.1
2017-02-10T09:25:14.250Z,-4.1
2017-02-10T09:26:17.189Z,-4.1
2017-02-10T09:27:19.627Z,-4
2017-02-10T09:28:22.067Z,-4.1
2017-02-10T09:29:24.505Z,-4.1
2017-02-10T09:30:26.775Z,-4
2017-02-10T09:31:29.216Z,-4
2017-02-10T09:32:31.659Z,-4
2017-02-10T09:33:34.105Z,-4
2017-02-10T09:34:36.543Z,-4
2017-02-10T09:35:38.985Z,-4
2017-02-10T09:36:41.426Z,-4
2017-02-10T09:37:43.696Z,-4
2017-02-10T09:38:46.139Z,-4
2017-02-10T09:39:48.583Z,-4
2017-02-10T09:40:51.027Z,-4
2017-02-10T09:41:53.472Z,-4
2017-02-10T09:42:55.914Z,-4
2017-02-10T09:43:58.351Z,-4
2017-02-10T09:45:00.792Z,-4
2017-02-10T09:46:03.234Z,-4
2017-02-10T09:47:05.703Z,-3.9
2017-02-10T09:48:07.982Z,-3.9
2017-02-10T09:49:10.928Z,-3.9
2017-02-10T09:50:13.372Z,-3.9
2017-02-10T09:51:15.813Z,-3.9
2017-02-10T09:52:18.813Z,-3.8
2017-02-10T09:53:20.761Z,-3.8
2017-02-10T09:54:23.195Z,-3.8
2017-02-10T09:55:25.503Z,-3.8
2017-02-10T09:56:28.474Z,-3.8
2017-02-10T09:57:30.431Z,-3.8
2017-02-10T09:58:32.873Z,-3.8
2017-02-10T09:59:35.313Z,-3.8
2017-02-10T10:00:37.755Z,-3.7
2017-02-10T10:01:40.196Z,-3.8
2017-02-10T10:02:42.637Z,-3.7
2017-02-10T10:03:45.081Z,-3.8
2017-02-10T10:04:47.522Z,-3.7
2017-02-10T10:05:49.995Z,-3.7
2017-02-10T10:06:52.433Z,-3.7
2017-02-10T10:07:54.871Z,-3.7
2017-02-10T10:08:57.306Z,-3.6
2017-02-10T10:09:59.744Z,-3.7
2017-02-10T10:11:02.187Z,-3.6
2017-02-10T10:12:04.466Z,-3.6
2017-02-10T10:13:06.910Z,-3.6
2017-02-10T10:15:11.751Z,-3.7
2017-02-10T10:16:14.189Z,-3.6
2017-02-10T10:17:16.626Z,-3.6
2017-02-10T10:18:19.066Z,-3.6
2017-02-10T10:19:22.055Z,-3.6
2017-02-10T10:21:26.399Z,-3.6
2017-02-10T10:22:28.838Z,-3.6
2017-02-10T10:23:31.279Z,-3.6
2017-02-10T10:24:33.715Z,-3.6
2017-02-10T10:25:36.155Z,-3.6
2017-02-10T10:26:38.424Z,-3.6
2017-02-10T10:27:41.367Z,-3.6
2017-02-10T10:28:43.809Z,-3.6
2017-02-10T10:29:46.251Z,-3.6
2017-02-10T10:30:48.690Z,-3.6
2017-02-10T10:31:51.151Z,-3.5
2017-02-10T10:32:53.594Z,-3.5
2017-02-10T10:33:56.033Z,-3.5
2017-02-10T10:36:00.883Z,-3.5
2017-02-10T10:37:03.327Z,-3.5
2017-02-10T10:38:05.769Z,-3.5
2017-02-10T10:39:07.787Z,-3.5
2017-02-10T10:40:10.564Z,-3.5
2017-02-10T10:41:13.003Z,-3.5
2017-02-10T10:42:15.469Z,-3.4
2017-02-10T10:43:17.907Z,-3.4
2017-02-10T10:44:20.347Z,-3.4
2017-02-10T10:45:22.788Z,-3.3
2017-02-10T10:46:25.226Z,-3.3
2017-02-10T10:47:27.663Z,-3.3
2017-02-10T10:48:30.103Z,-3.3
2017-02-10T10:49:32.543Z,-3.3
2017-02-10T10:50:34.823Z,-3.3
2017-02-10T10:51:37.768Z,-3.3
2017-02-10T10:52:40.210Z,-3.3
2017-02-10T10:53:43.175Z,-3.3
2017-02-10T10:54:45.113Z,-3.3
2017-02-10T10:55:47.560Z,-3.3
2017-02-10T10:57:52.412Z,-3.3
2017-02-10T10:58:54.853Z,-3.2
2017-02-10T10:59:57.321Z,-3.2
2017-02-10T11:00:59.774Z,-3.2
2017-02-10T11:02:02.216Z,-3.1
2017-02-10T11:03:04.657Z,-3.1
2017-02-10T11:04:07.096Z,-3.2
2017-02-10T11:05:09.539Z,-3.1
2017-02-10T11:06:11.835Z,-3.1
2017-02-10T11:08:16.677Z,-3.1
2017-02-10T11:09:18.947Z,-3.1
2017-02-10T11:10:21.892Z,-3.1
2017-02-10T11:11:24.369Z,-3.1
2017-02-10T11:12:26.807Z,-3.1
2017-02-10T11:13:29.273Z,-3.1
2017-02-10T11:14:31.709Z,-3.1
2017-02-10T11:15:34.148Z,-3.1
2017-02-10T11:16:36.587Z,-3.1
2017-02-10T11:17:39.556Z,-3.1
2017-02-10T11:18:41.324Z,-3.1
2017-02-10T11:19:43.769Z,-3.1
2017-02-10T11:20:46.212Z,-3.1
2017-02-10T11:21:48.650Z,-3
2017-02-10T11:22:51.096Z,-3
2017-02-10T11:23:53.531Z,-3
2017-02-10T11:24:55.975Z,-3
2017-02-10T11:25:58.420Z,-3
2017-02-10T11:27:01.195Z,-3
2017-02-10T11:28:03.640Z,-3
2017-02-10T11:29:06.085Z,-3
2017-02-10T11:30:08.523Z,-3
2017-02-10T11:31:10.964Z,-3
2017-02-10T11:32:13.405Z,-3
2017-02-10T11:33:15.842Z,-3
2017-02-10T11:34:18.280Z,-3
2017-02-10T11:35:20.723Z,-2.9
2017-02-10T11:36:23.162Z,-2.9
2017-02-10T11:37:25.604Z,-2.9
2017-02-10T11:38:28.379Z,-2.9
2017-02-10T11:39:30.820Z,-2.9
2017-02-10T11:40:33.256Z,-2.9
2017-02-10T11:41:35.696Z,-2.9
2017-02-10T11:42:38.133Z,-2.8
2017-02-10T11:43:40.574Z,-2.9
2017-02-10T11:44:44.063Z,-2.9
2017-02-10T11:45:45.504Z,-2.9
2017-02-10T11:46:47.941Z,-2.8
2017-02-10T11:47:50.383Z,-2.8
2017-02-10T11:48:52.831Z,-2.8
2017-02-10T11:49:55.300Z,-2.8
2017-02-10T11:50:57.760Z,-2.8
2017-02-10T11:52:00.201Z,-2.8
2017-02-10T11:53:02.644Z,-2.7
2017-02-10T11:54:05.082Z,-2.8
2017-02-10T11:55:07.357Z,-2.8
2017-02-10T11:56:10.141Z,-2.8
2017-02-10T11:58:14.987Z,-2.8
2017-02-10T11:59:17.449Z,-2.8
2017-02-10T12:00:19.893Z,-2.7
2017-02-10T12:01:22.170Z,-2.7
2017-02-10T12:03:27.520Z,-2.7
2017-02-10T12:04:29.965Z,-2.7
2017-02-10T12:05:32.405Z,-2.7
2017-02-10T12:06:34.844Z,-2.7
2017-02-10T12:07:37.291Z,-2.6
2017-02-10T12:08:39.731Z,-2.6
2017-02-10T12:09:42.172Z,-2.6
2017-02-10T12:10:44.617Z,-2.6
2017-02-10T12:11:47.063Z,-2.5
2017-02-10T12:12:49.503Z,-2.6
2017-02-10T12:13:51.939Z,-2.6
2017-02-10T12:14:54.210Z,-2.6
2017-02-10T12:15:56.648Z,-2.6
2017-02-10T12:16:59.110Z,-2.6
2017-02-10T12:18:02.053Z,-2.5
2017-02-10T12:19:04.492Z,-2.5
2017-02-10T12:20:06.931Z,-2.5
2017-02-10T12:21:09.203Z,-2.5
2017-02-10T12:22:12.002Z,-2.5
2017-02-10T12:23:13.936Z,-2.5
2017-02-10T12:25:19.120Z,-2.6
2017-02-10T12:26:21.391Z,-2.6
2017-02-10T12:28:26.570Z,-2.6
2017-02-10T12:29:29.011Z,-2.5
2017-02-10T12:30:31.452Z,-2.5
2017-02-10T12:31:34.419Z,-2.5
2017-02-10T12:32:36.358Z,-2.5
2017-02-10T12:33:38.799Z,-2.5
2017-02-10T12:34:41.275Z,-2.5
2017-02-10T12:35:43.718Z,-2.6
2017-02-10T12:36:46.159Z,-2.6
2017-02-10T12:37:48.600Z,-2.6
2017-02-10T12:38:51.038Z,-2.5
2017-02-10T12:39:53.484Z,-2.5
2017-02-10T12:40:56.451Z,-2.5
2017-02-10T12:41:58.386Z,-2.5
2017-02-10T12:43:00.831Z,-2.5
2017-02-10T12:44:03.267Z,-2.5
2017-02-10T12:45:06.046Z,-2.5
2017-02-10T12:47:10.892Z,-2.4
2017-02-10T12:48:13.859Z,-2.5
2017-02-10T12:49:15.798Z,-2.5
2017-02-10T12:50:18.241Z,-2.4
2017-02-10T12:51:20.679Z,-2.4
2017-02-10T12:52:23.119Z,-2.5
2017-02-10T12:53:25.556Z,-2.5
2017-02-10T12:54:27.994Z,-2.5
2017-02-10T12:55:30.959Z,-2.4
2017-02-10T12:56:32.899Z,-2.3
2017-02-10T12:57:35.337Z,-2.3
2017-02-10T12:59:40.683Z,-2.4
2017-02-10T13:00:42.961Z,-2.4
2017-02-10T13:01:45.404Z,-2.3
2017-02-10T13:02:47.847Z,-2.4
2017-02-10T13:03:50.285Z,-2.3
2017-02-10T13:05:55.128Z,-2.3
2017-02-10T13:06:57.593Z,-2.3
2017-02-10T13:08:00.038Z,-2.3
2017-02-10T13:09:02.478Z,-2.3
2017-02-10T13:10:04.920Z,-2.3
2017-02-10T13:11:07.861Z,-2.3
2017-02-10T13:12:10.135Z,-2.3
2017-02-10T13:13:12.582Z,-2.3
2017-02-10T13:14:15.023Z,-2.3
2017-02-10T13:15:17.458Z,-2.3
2017-02-10T13:16:19.899Z,-2.4
2017-02-10T13:17:22.337Z,-2.3
2017-02-10T13:18:24.777Z,-2.3
2017-02-10T13:19:27.223Z,-2.3
2017-02-10T13:20:29.664Z,-2.4
2017-02-10T13:21:32.105Z,-2.4
2017-02-10T13:22:34.914Z,-2.4
2017-02-10T13:23:37.882Z,-2.4
2017-02-10T13:24:39.819Z,-2.3
2017-02-10T13:25:42.792Z,-2.3
2017-02-10T13:26:44.735Z,-2.3
2017-02-10T13:27:47.174Z,-2.3
2017-02-10T13:28:49.614Z,-2.3
2017-02-10T13:29:52.050Z,-2.3
2017-02-10T13:30:54.492Z,-2.3
2017-02-10T13:31:56.955Z,-2.3
2017-02-10T13:32:59.397Z,-2.3
2017-02-10T13:35:04.246Z,-2.3
2017-02-10T13:36:06.690Z,-2.3
2017-02-10T13:37:09.133Z,-2.3
2017-02-10T13:38:11.573Z,-2.3
2017-02-10T13:39:14.513Z,-2.3
2017-02-10T13:40:17.483Z,-2.3
2017-02-10T13:42:21.583Z,-2.2
2017-02-10T13:43:24.026Z,-2.2
2017-02-10T13:44:26.466Z,-2.1
2017-02-10T13:45:28.905Z,-2.1
2017-02-10T13:46:31.350Z,-2.1
2017-02-10T13:47:33.788Z,-2.1
2017-02-10T13:48:36.734Z,-2.1
2017-02-10T13:49:39.185Z,-2.1
2017-02-10T13:50:41.624Z,-2.1
2017-02-10T13:51:44.069Z,-2.1
2017-02-10T13:52:46.507Z,-2.1
2017-02-10T13:53:48.947Z,-2.1
2017-02-10T13:54:51.385Z,-2.1
2017-02-10T13:55:53.824Z,-2.1
2017-02-10T13:56:56.790Z,-2.1
2017-02-10T13:57:58.723Z,-2.1
2017-02-10T13:59:01.164Z,-2.1
2017-02-10T14:00:03.444Z,-2.1
2017-02-10T14:01:05.885Z,-2.1
2017-02-10T14:02:08.831Z,-2.1
2017-02-10T14:03:11.268Z,-2.1
2017-02-10T14:04:13.548Z,-2.1
2017-02-10T14:05:15.987Z,-2.1
2017-02-10T14:06:18.435Z,-2.1
2017-02-10T14:07:21.406Z,-2.1
2017-02-10T14:08:23.347Z,-2.1
2017-02-10T14:09:25.787Z,-2.1
2017-02-10T14:10:28.231Z,-2.1
2017-02-10T14:11:30.668Z,-2.1
2017-02-10T14:12:33.110Z,-2.1
2017-02-10T14:13:35.561Z,-2.1
2017-02-10T14:14:38.007Z,-2.1
2017-02-10T14:15:40.949Z,-2.1
2017-02-10T14:16:43.428Z,-2
2017-02-10T14:17:45.701Z,-2
2017-02-10T14:18:47.979Z,-2.1
2017-02-10T14:19:50.442Z,-2
2017-02-10T14:20:52.881Z,-2.1
2017-02-10T14:21:55.320Z,-2
2017-02-10T14:22:57.763Z,-2
2017-02-10T14:25:03.112Z,-2
2017-02-10T14:26:05.218Z,-2
2017-02-10T14:27:07.653Z,-2
2017-02-10T14:29:12.829Z,-2
2017-02-10T14:30:15.105Z,-1.9
2017-02-10T14:31:17.546Z,-2
2017-02-10T14:32:20.486Z,-2
2017-02-10T14:33:22.924Z,-1.9
2017-02-10T14:34:25.363Z,-1.9
2017-02-10T14:35:27.801Z,-2
2017-02-10T14:36:30.765Z,-2
2017-02-10T14:37:32.709Z,-1.9
2017-02-10T14:38:35.152Z,-1.9
2017-02-10T14:39:37.591Z,-1.9
2017-02-10T14:40:40.031Z,-1.9
2017-02-10T14:41:42.471Z,-1.9
2017-02-10T14:42:44.911Z,-1.9
2017-02-10T14:43:47.186Z,-1.9
2017-02-10T14:44:50.129Z,-1.9
2017-02-10T14:45:52.592Z,-2
2017-02-10T14:46:55.035Z,-1.9
2017-02-10T14:47:57.476Z,-1.9